createdAt,value
2022-08-22T12:51:55.753Z,101451.94
2022-08-22T12:54:51.466Z,101451.34
2022-08-22T12:57:33.269Z,101449.19
2022-08-22T13:00:16.695Z,101452.88
2022-08-22T13:02:53.409Z,101451.50
2022-08-22T13:05:28.210Z,101446.31
2022-08-22T13:08:04.664Z,101446.50
2022-08-22T13:10:50.517Z,101440.81
2022-08-22T13:13:37.172Z,101446.50
2022-08-22T13:16:08.678Z,101445.38
2022-08-22T13:18:53.695Z,101449.38
2022-08-22T13:21:25.544Z,101443.06
2022-08-22T13:24:10.595Z,101440.59
2022-08-22T13:26:51.074Z,101446.69
2022-08-22T13:29:26.092Z,101442.22
2022-08-22T13:31:58.352Z,101447.06
2022-08-22T13:34:43.702Z,101436.16
2022-08-22T13:37:24.500Z,101444.63
2022-08-22T13:39:54.436Z,101440.28
2022-08-22T13:42:29.875Z,101444.56
2022-08-22T13:44:59.672Z,101443.31
2022-08-22T13:47:31.571Z,101444.09
2022-08-22T13:50:19.927Z,101450.25
2022-08-22T13:52:58.611Z,101443.34
2022-08-22T13:55:35.339Z,101443.63
2022-08-22T13:58:22.193Z,101445.56
2022-08-22T14:01:13.780Z,101442.63
2022-08-22T14:03:56.917Z,101434.09
2022-08-22T14:06:41.265Z,101450.50
2022-08-22T14:09:41.439Z,101446.13
2022-08-22T14:12:14.255Z,101443.63
2022-08-22T14:14:46.943Z,101432.00
2022-08-22T14:17:18.764Z,101433.25
2022-08-22T14:19:59.459Z,101437.44
2022-08-22T14:22:34.573Z,101435.56
2022-08-22T14:25:17.329Z,101442.00
2022-08-22T14:27:49.990Z,101440.72
2022-08-22T14:30:30.532Z,101440.28
2022-08-22T14:33:16.634Z,101445.44
2022-08-22T14:35:52.767Z,101445.47
2022-08-22T14:38:31.875Z,101447.09
2022-08-22T14:41:09.021Z,101437.78
2022-08-22T14:43:57.973Z,101449.88
2022-08-22T14:46:42.831Z,101436.81
2022-08-22T14:49:20.835Z,101446.72
2022-08-22T14:51:58.183Z,101441.97
2022-08-22T14:54:29.162Z,101446.22
2022-08-22T14:56:56.991Z,101447.09
2022-08-22T14:59:50.122Z,101435.19
2022-08-22T15:02:30.078Z,101434.56
2022-08-22T15:05:05.675Z,101427.38
2022-08-22T15:07:34.757Z,101432.00
2022-08-22T15:10:06.890Z,101430.31
2022-08-22T15:12:47.667Z,101423.13
2022-08-22T15:15:52.804Z,101416.97
2022-08-22T15:18:20.751Z,101420.03
2022-08-22T15:20:52.155Z,101422.75
2022-08-22T15:23:21.264Z,101429.84
2022-08-22T15:26:00.712Z,101421.03
2022-08-22T15:28:28.168Z,101409.47
2022-08-22T15:31:16.643Z,101418.31
2022-08-22T15:33:45.962Z,101418.59
2022-08-22T15:36:16.640Z,101422.00
2022-08-22T15:38:52.081Z,101430.16
2022-08-22T15:41:36.484Z,101433.31
2022-08-22T15:44:21.454Z,101428.97
2022-08-22T15:47:02.868Z,101433.72
2022-08-22T15:49:32.608Z,101433.25
2022-08-22T15:52:00.878Z,101421.81
2022-08-22T15:54:46.912Z,101428.66
2022-08-22T15:57:40.723Z,101428.00
2022-08-22T16:00:55.560Z,101427.34
2022-08-22T16:03:22.776Z,101427.97
2022-08-22T16:05:55.404Z,101412.88
2022-08-22T16:08:28.292Z,101417.91
2022-08-22T16:16:29.875Z,101408.56
2022-08-22T16:18:56.329Z,101408.41
2022-08-22T16:21:22.794Z,101416.25
2022-08-22T16:23:56.859Z,101417.94
2022-08-22T16:26:30.376Z,101406.72
2022-08-22T16:28:59.738Z,101414.38
2022-08-22T16:31:32.311Z,101416.59
2022-08-22T16:34:23.594Z,101414.72
2022-08-22T16:37:08.574Z,101415.75
2022-08-22T16:40:06.985Z,101411.16
2022-08-22T16:42:39.527Z,101418.09
2022-08-22T16:45:13.075Z,101419.63
2022-08-22T16:48:05.468Z,101420.44
2022-08-22T16:50:37.625Z,101423.75
2022-08-22T16:53:45.630Z,101429.22
2022-08-22T16:56:27.032Z,101427.41
2022-08-22T16:59:38.815Z,101430.84
2022-08-22T17:02:23.464Z,101431.59
2022-08-22T17:05:08.815Z,101437.75
2022-08-22T17:07:38.392Z,101434.81
2022-08-22T17:10:22.978Z,101434.91
2022-08-22T17:13:01.054Z,101433.31
2022-08-22T17:15:49.509Z,101433.97
2022-08-22T17:18:35.894Z,101433.03
2022-08-22T17:21:26.722Z,101444.44
2022-08-22T17:24:33.826Z,101444.84
2022-08-22T17:27:03.939Z,101441.78
2022-08-22T17:29:49.347Z,101441.97
2022-08-22T17:32:22.914Z,101448.88
2022-08-22T17:35:14.429Z,101449.47
2022-08-22T17:37:54.525Z,101452.06
2022-08-22T17:40:45.796Z,101457.09
2022-08-22T17:43:17.946Z,101453.97
2022-08-22T17:45:44.450Z,101460.41
2022-08-22T17:48:31.721Z,101459.56
2022-08-22T17:51:33.497Z,101472.09
2022-08-22T17:54:15.614Z,101468.03
2022-08-22T17:56:46.374Z,101469.78
2022-08-22T17:59:21.249Z,101462.88
2022-08-22T18:01:47.837Z,101468.66
2022-08-22T18:04:23.765Z,101474.72
2022-08-22T18:06:56.991Z,101481.78
2022-08-22T18:09:31.994Z,101472.00
2022-08-22T18:12:05.177Z,101472.28
2022-08-22T18:15:08.023Z,101478.69
2022-08-22T18:17:47.520Z,101484.47
2022-08-22T18:20:24.095Z,101486.72
2022-08-22T18:22:55.326Z,101493.09
2022-08-22T18:25:22.183Z,101496.31
2022-08-22T18:28:00.115Z,101488.13
2022-08-22T18:30:31.429Z,101491.22
2022-08-22T18:33:22.727Z,101505.38
2022-08-22T18:35:53.891Z,101496.72
2022-08-22T18:38:39.454Z,101498.97
2022-08-22T18:41:11.057Z,101496.41
2022-08-22T18:43:48.176Z,101502.28
2022-08-22T18:46:41.954Z,66311.00
2022-08-22T18:49:23.635Z,66311.00
2022-08-22T18:52:25.789Z,66311.00
2022-08-22T18:55:15.073Z,66311.00
2022-08-22T18:57:54.138Z,66311.00
2022-08-22T19:00:23.853Z,66311.00
2022-08-22T19:03:26.086Z,66311.00
2022-08-22T19:06:08.311Z,66311.00
2022-08-22T19:08:49.326Z,66311.00
2022-08-22T19:11:57.266Z,66311.00
2022-08-22T19:14:47.029Z,66311.00
2022-08-22T19:17:33.186Z,66311.00
2022-08-22T19:20:27.769Z,66311.00
2022-08-22T19:23:40.408Z,66311.00
2022-08-22T19:26:25.028Z,66311.00
2022-08-22T19:29:06.661Z,66311.00
2022-08-22T19:31:35.389Z,66311.00
2022-08-22T19:34:28.709Z,66311.00
2022-08-22T19:37:30.930Z,66311.00
2022-08-22T19:40:10.742Z,66311.00
2022-08-22T19:42:39.501Z,66311.00
2022-08-22T19:45:18.606Z,66311.00
2022-08-22T19:47:52.303Z,66311.00
2022-08-22T19:50:18.782Z,66311.00
2022-08-22T19:52:54.264Z,66311.00
2022-08-22T19:55:36.741Z,66311.00
2022-08-22T19:58:32.011Z,66311.00
2022-08-22T20:01:09.110Z,66311.00
2022-08-22T20:03:48.385Z,66311.00
2022-08-22T20:06:42.857Z,66311.00
2022-08-22T20:09:12.394Z,66311.00
2022-08-22T20:12:00.954Z,66311.00
2022-08-22T20:14:30.826Z,66311.00
2022-08-22T20:17:06.876Z,66311.00
2022-08-22T20:22:39.176Z,66311.00
2022-08-22T20:25:41.693Z,66311.00
2022-08-22T20:28:08.649Z,66311.00
2022-08-22T20:30:41.872Z,66311.00
2022-08-22T20:33:12.780Z,66311.00
2022-08-22T20:36:27.169Z,66311.00
2022-08-22T20:38:56.975Z,66311.00
2022-08-22T20:41:31.867Z,66311.00
2022-08-22T20:44:38.403Z,66311.00
2022-08-22T20:47:13.156Z,66311.00
2022-08-22T20:50:10.517Z,66311.00
2022-08-22T20:52:42.657Z,66311.00
2022-08-22T20:55:24.060Z,66311.00
2022-08-22T20:58:00.805Z,66311.00
2022-08-22T21:00:33.826Z,66311.00
2022-08-22T21:03:11.873Z,66311.00
2022-08-22T21:05:43.917Z,66311.00
2022-08-22T21:08:18.775Z,66311.00
2022-08-22T21:11:15.365Z,66311.00
2022-08-22T21:13:42.065Z,66311.00
2022-08-22T21:16:13.191Z,66311.00
2022-08-22T21:18:42.729Z,66311.00
2022-08-22T21:21:24.673Z,66311.00
2022-08-22T21:23:59.940Z,66311.00
2022-08-22T21:26:30.905Z,66311.00
2022-08-22T21:29:06.826Z,66311.00
2022-08-22T21:31:36.072Z,66311.00
2022-08-22T21:34:02.811Z,66311.00
2022-08-22T21:36:31.603Z,66311.00
2022-08-22T21:39:04.448Z,66311.00
2022-08-22T21:41:43.588Z,66311.00
2022-08-22T21:44:29.340Z,66311.00
2022-08-22T21:46:56.938Z,66311.00
2022-08-22T21:49:29.240Z,66311.00
2022-08-22T21:51:56.331Z,66311.00
2022-08-22T21:54:26.088Z,66311.00
2022-08-22T21:57:14.379Z,66311.00
2022-08-22T21:59:51.526Z,66311.00
2022-08-22T22:02:45.406Z,66311.00
2022-08-22T22:05:16.220Z,66311.00
2022-08-22T22:07:45.217Z,66311.00
2022-08-22T22:10:15.543Z,66311.00
2022-08-22T22:12:43.325Z,66311.00
2022-08-22T22:15:13.136Z,66311.00
2022-08-22T22:17:39.719Z,66311.00
2022-08-22T22:20:06.880Z,66311.00
2022-08-22T22:22:33.411Z,66311.00
2022-08-22T22:25:04.789Z,66311.00
2022-08-22T22:27:31.809Z,66311.00
2022-08-22T22:29:58.371Z,66311.00
2022-08-22T22:32:24.955Z,66311.00
2022-08-22T22:34:51.529Z,66311.00
2022-08-22T22:37:18.397Z,66311.00
2022-08-22T22:39:45.058Z,66311.00
2022-08-22T22:42:11.985Z,66311.00
2022-08-22T22:44:38.570Z,66311.00
2022-08-22T22:47:05.313Z,66311.00
2022-08-22T22:49:32.757Z,66311.00
2022-08-22T22:52:00.695Z,66311.00
2022-08-22T22:54:27.683Z,66311.00
2022-08-22T22:56:56.399Z,66311.00
2022-08-22T22:59:25.418Z,66311.00
2022-08-22T23:02:21.868Z,66311.00
2022-08-22T23:04:52.852Z,66311.00
2022-08-22T23:07:20.201Z,66311.00
2022-08-22T23:09:46.861Z,66311.00
2022-08-22T23:12:14.598Z,66311.00
2022-08-22T23:14:41.187Z,66311.00
2022-08-22T23:17:08.105Z,66311.00
2022-08-22T23:19:34.943Z,66311.00
2022-08-22T23:22:01.679Z,66311.00
2022-08-22T23:24:31.237Z,66311.00
2022-08-22T23:26:58.613Z,66311.00
2022-08-22T23:29:25.866Z,66311.00
2022-08-22T23:31:54.169Z,66311.00
2022-08-22T23:34:24.249Z,66311.00
2022-08-22T23:36:54.461Z,66311.00
2022-08-22T23:39:22.429Z,66311.00
2022-08-22T23:41:49.248Z,66311.00
2022-08-22T23:44:17.929Z,66311.00
2022-08-22T23:46:44.933Z,66311.00
2022-08-22T23:49:11.890Z,66311.00
2022-08-22T23:51:39.531Z,66311.00
2022-08-22T23:54:06.576Z,66311.00
2022-08-22T23:56:35.618Z,66311.00
2022-08-22T23:59:05.554Z,66311.00
